Aviation Digital Data Service (ADDS)

Output produced by TAFs form (1028 UTC 20 July 2018)
found at http://aviationweather.gov/adds/tafs/
 
METAR text: WSSL 201000Z 20007KT 9999 FEW020TCU BKN300 33/22 Q1008 RMK 0930Z Q1008
Conditions at: WSSL (SINGAPORE/SELETA, SG) observed 1000 UTC 20 July 2018
Temperature: 33.0°C (91°F)
Dewpoint: 22.0°C (72°F) [RH = 53%]
Pressure (altimeter): 29.76 inches Hg (1008.0 mb)
Winds: from the SSW (200 degrees) at 8 MPH (7 knots; 3.6 m/s)
Visibility: 6 or more miles (10+ km)
Ceiling: 30000 feet AGL
Clouds: few clouds at 2000 feet AGL
broken clouds at 30000 feet AGL
Weather: no significant weather observed at this time

Forecast for: WSSL (SINGAPORE/SELETA, SG)
Text: TAF AMD WSSL 200800Z 2008/2112 18010KT 9999 FEW018CB SCT020
Forecast period: 0800 UTC 20 July 2018 to 1200 UTC 21 July 2018
Forecast type: FROM: standard forecast or significant change
Winds: from the S (180 degrees) at 12 MPH (10 knots; 5.2 m/s)
Visibility: 6 or more miles (10+ km)
Clouds: few clouds at 1800 feet AGL
scattered clouds at 2000 feet AGL
Weather: no significant weather forecast for this period
Text: TEMPO 2021/2101 3000 TSRA FEW012CB BKN015
Forecast period: 2100 UTC 20 July 2018 to 0100 UTC 21 July 2018
Forecast type: TEMPORARY: The following changes expected for less than half the time period
Visibility: 1.86 miles (2.99 km)
Ceiling: 1500 feet AGL
Clouds: few clouds at 1200 feet AGL
broken clouds at 1500 feet AGL
Weather: TSRA  (rain associated with thunderstorm(s))